createdAt,value
2022-10-31T00:00:31.264Z,96082.34
2022-10-31T00:02:58.184Z,96090.94
2022-10-31T00:05:24.845Z,96091.38
2022-10-31T00:07:54.304Z,96089.91
2022-10-31T00:10:20.786Z,96089.06
2022-10-31T00:12:47.243Z,96088.22
2022-10-31T00:15:13.728Z,96089.31
2022-10-31T00:17:40.180Z,96081.97
2022-10-31T00:20:07.182Z,96081.81
2022-10-31T00:22:33.661Z,96081.00
2022-10-31T00:25:00.126Z,96084.09
2022-10-31T00:27:26.618Z,96085.13
2022-10-31T00:29:53.073Z,96085.72
2022-10-31T00:32:19.523Z,96079.84
2022-10-31T00:34:45.998Z,96079.38
2022-10-31T00:37:12.442Z,96075.72
2022-10-31T00:39:38.872Z,96081.88
2022-10-31T00:42:05.353Z,96073.69
2022-10-31T00:44:31.830Z,96073.88
2022-10-31T00:46:58.311Z,96071.22
2022-10-31T00:49:24.755Z,96076.13
2022-10-31T00:51:51.231Z,96075.72
2022-10-31T00:54:17.691Z,96077.34
2022-10-31T00:56:44.123Z,96072.44
2022-10-31T00:59:10.557Z,96079.00
2022-10-31T01:01:37.227Z,96074.09
2022-10-31T01:04:03.883Z,96065.53
2022-10-31T01:06:30.401Z,96059.38
2022-10-31T01:08:56.835Z,96066.72
2022-10-31T01:11:24.650Z,96064.88
2022-10-31T01:13:53.251Z,96056.44
2022-10-31T01:16:23.038Z,96066.19
2022-10-31T01:18:49.531Z,96060.72
2022-10-31T01:21:19.290Z,96060.72
2022-10-31T01:23:46.334Z,96064.09
2022-10-31T01:26:20.082Z,96052.88
2022-10-31T01:28:49.478Z,96054.31
2022-10-31T01:31:17.990Z,96053.94
2022-10-31T01:33:44.565Z,96063.34
2022-10-31T01:36:21.854Z,96057.59
2022-10-31T01:38:50.074Z,96060.50
2022-10-31T01:41:20.622Z,96054.16
2022-10-31T01:43:58.089Z,96060.09
2022-10-31T01:46:35.125Z,96046.59
2022-10-31T01:49:10.566Z,96055.19
2022-10-31T01:51:45.816Z,96045.75
2022-10-31T01:54:19.531Z,96046.59
2022-10-31T01:56:52.402Z,96046.09
2022-10-31T01:59:21.791Z,96041.84
2022-10-31T02:01:52.500Z,96041.44
2022-10-31T02:04:22.204Z,96036.34
2022-10-31T02:06:56.126Z,96039.22
2022-10-31T02:09:24.442Z,96039.25
2022-10-31T02:11:55.163Z,96042.72
2022-10-31T02:14:27.735Z,96035.97
2022-10-31T02:16:55.111Z,96036.78
2022-10-31T02:19:35.836Z,96024.94
2022-10-31T02:22:47.970Z,96030.00
2022-10-31T02:25:17.390Z,96021.66
2022-10-31T02:28:11.668Z,96015.31
2022-10-31T02:30:46.186Z,96016.97
2022-10-31T02:33:27.189Z,96014.06
2022-10-31T02:36:05.230Z,96018.16
2022-10-31T02:38:59.734Z,96009.38
2022-10-31T02:41:45.783Z,96006.84
2022-10-31T02:44:20.953Z,96006.72
2022-10-31T02:47:02.471Z,96000.78
2022-10-31T02:49:40.664Z,96003.03
2022-10-31T02:52:27.361Z,96005.66
2022-10-31T02:54:54.451Z,95999.94
2022-10-31T02:57:33.548Z,95999.13
2022-10-31T03:00:07.397Z,95998.31
2022-10-31T03:02:58.922Z,95992.78
2022-10-31T03:05:58.369Z,95999.13
2022-10-31T03:08:33.620Z,95996.66
2022-10-31T03:11:11.149Z,95994.59
2022-10-31T03:13:58.449Z,95998.50
2022-10-31T03:16:36.510Z,95997.47
2022-10-31T03:19:20.543Z,95995.06
2022-10-31T03:21:57.494Z,95991.78
2022-10-31T03:24:32.588Z,95987.47
2022-10-31T03:27:02.742Z,95989.28
2022-10-31T03:29:35.437Z,95996.06
2022-10-31T03:32:15.205Z,95988.50
2022-10-31T03:34:44.909Z,95983.97
2022-10-31T03:37:17.570Z,95995.44
2022-10-31T03:39:48.543Z,95976.22
2022-10-31T03:42:21.402Z,95984.22
2022-10-31T03:45:15.211Z,95984.97
2022-10-31T03:47:44.732Z,95981.16
2022-10-31T03:50:15.837Z,95982.41
2022-10-31T03:53:07.045Z,95986.47
2022-10-31T03:55:57.230Z,95988.50
2022-10-31T03:58:30.764Z,95985.59
2022-10-31T04:01:01.970Z,95981.28
2022-10-31T04:03:34.714Z,95988.44
2022-10-31T04:06:08.205Z,95997.66
2022-10-31T04:08:42.806Z,95985.16
2022-10-31T04:11:14.291Z,95988.41
2022-10-31T04:14:04.773Z,95992.09
2022-10-31T04:16:31.592Z,95992.09
2022-10-31T04:18:58.293Z,95980.25
2022-10-31T04:21:29.412Z,95986.41
2022-10-31T04:23:56.749Z,95983.75
2022-10-31T04:26:23.283Z,95980.06
2022-10-31T04:28:49.821Z,95986.41
2022-10-31T04:31:17.177Z,95978.19
2022-10-31T04:33:43.867Z,95972.88
2022-10-31T04:36:11.056Z,95974.53
2022-10-31T04:38:37.571Z,95977.34
2022-10-31T04:41:04.085Z,95981.03
2022-10-31T04:43:30.595Z,95983.69
2022-10-31T04:45:57.043Z,95982.03
2022-10-31T04:48:23.504Z,95980.41
2022-10-31T04:50:49.959Z,95979.38
2022-10-31T04:53:16.447Z,95976.84
2022-10-31T04:55:42.931Z,95969.53
2022-10-31T04:58:09.472Z,95979.69
2022-10-31T05:00:35.989Z,95981.94
2022-10-31T05:03:03.000Z,95985.59
2022-10-31T05:05:31.989Z,95984.19
2022-10-31T05:07:58.459Z,95982.56
2022-10-31T05:10:27.977Z,95976.03
2022-10-31T05:12:57.606Z,95982.00
2022-10-31T05:15:26.271Z,95984.19
2022-10-31T05:17:54.165Z,95986.63
2022-10-31T05:20:22.969Z,95983.59
2022-10-31T05:22:52.051Z,95982.56
2022-10-31T05:25:20.839Z,95976.63
2022-10-31T05:27:49.734Z,95963.72
2022-10-31T05:30:22.445Z,95967.78
2022-10-31T05:32:50.900Z,95965.75
2022-10-31T05:35:25.218Z,95958.81
2022-10-31T05:37:52.030Z,95968.16
2022-10-31T05:40:19.630Z,95961.00
2022-10-31T05:42:47.145Z,95966.09
2022-10-31T05:45:17.005Z,95953.03
2022-10-31T05:47:50.558Z,95947.09
2022-10-31T05:50:17.160Z,95954.19
2022-10-31T05:52:43.628Z,95953.75
2022-10-31T05:55:10.198Z,95961.44
2022-10-31T05:57:36.687Z,95963.31
2022-10-31T06:00:05.091Z,95963.13
2022-10-31T06:02:31.726Z,95959.03
2022-10-31T06:04:58.278Z,95969.38
2022-10-31T06:07:24.783Z,95967.78
2022-10-31T06:09:51.232Z,95966.72
2022-10-31T06:12:17.693Z,95969.81
2022-10-31T06:14:44.131Z,95966.25
2022-10-31T06:17:10.715Z,95966.34
2022-10-31T06:19:37.267Z,95967.25
2022-10-31T06:22:03.826Z,95978.25
2022-10-31T06:24:30.296Z,95973.72
2022-10-31T06:26:56.776Z,95977.84
2022-10-31T06:29:23.275Z,95973.31
2022-10-31T06:31:52.756Z,95967.25
2022-10-31T06:34:19.238Z,95969.84
2022-10-31T06:36:47.375Z,95973.34
2022-10-31T06:39:14.531Z,95966.03
2022-10-31T06:41:40.977Z,95976.44
2022-10-31T06:44:09.037Z,95977.66
2022-10-31T06:46:35.566Z,95978.50
2022-10-31T06:49:02.015Z,95986.44
2022-10-31T06:51:28.486Z,95994.25
2022-10-31T06:53:54.973Z,95985.03
2022-10-31T06:56:21.420Z,95997.94
2022-10-31T06:58:47.910Z,96001.47
2022-10-31T07:01:14.483Z,96004.59
2022-10-31T07:03:41.067Z,96008.28
2022-10-31T07:06:07.604Z,96001.03
2022-10-31T07:08:34.075Z,96010.03
2022-10-31T07:11:00.589Z,96010.28
2022-10-31T07:13:27.089Z,96006.44
2022-10-31T07:15:55.816Z,96007.03
2022-10-31T07:18:22.463Z,96001.41
2022-10-31T07:20:49.346Z,96006.72
2022-10-31T07:23:16.076Z,95998.25
2022-10-31T07:25:42.957Z,96005.56
2022-10-31T07:28:10.408Z,96009.31
2022-10-31T07:30:37.524Z,96008.50
2022-10-31T07:33:05.558Z,96012.31
2022-10-31T07:35:32.672Z,96015.59
2022-10-31T07:38:08.050Z,96019.09
2022-10-31T07:40:34.561Z,96018.28
2022-10-31T07:43:01.023Z,96029.19
2022-10-31T07:45:27.470Z,96031.91
2022-10-31T07:47:54.362Z,96021.09
2022-10-31T07:50:25.879Z,96028.25
2022-10-31T07:53:03.563Z,96027.88
2022-10-31T07:55:30.204Z,96035.03
2022-10-31T07:58:02.366Z,96034.19
2022-10-31T08:00:30.386Z,96035.03
2022-10-31T08:03:06.034Z,96030.50
2022-10-31T08:05:34.032Z,96014.16
2022-10-31T08:08:00.755Z,96006.78
2022-10-31T08:10:28.484Z,96000.44
2022-10-31T08:13:00.995Z,96007.59
2022-10-31T08:15:28.140Z,96006.16
2022-10-31T08:17:54.807Z,96006.38
2022-10-31T08:20:22.166Z,96004.31
2022-10-31T08:22:56.059Z,96002.69
2022-10-31T08:25:23.043Z,95992.44
2022-10-31T08:27:54.320Z,95990.38
2022-10-31T08:30:22.788Z,95983.81
2022-10-31T08:33:05.037Z,95982.59
2022-10-31T08:35:33.322Z,95977.88
2022-10-31T08:38:00.605Z,95970.28
2022-10-31T08:40:29.630Z,95968.59
2022-10-31T08:43:07.392Z,95973.09
2022-10-31T08:45:35.375Z,95975.59
2022-10-31T08:48:04.944Z,95973.03
2022-10-31T08:50:34.517Z,95969.91
2022-10-31T08:53:06.761Z,95955.50
2022-10-31T08:55:35.304Z,95950.75
2022-10-31T08:58:03.068Z,95952.38
2022-10-31T09:00:29.965Z,95959.09
2022-10-31T09:03:00.448Z,95958.88
2022-10-31T09:05:27.461Z,95961.56
2022-10-31T09:08:02.862Z,95958.75
2022-10-31T09:10:31.402Z,95949.66
2022-10-31T09:13:02.463Z,95953.28
2022-10-31T09:15:29.440Z,95945.66
2022-10-31T09:17:55.920Z,95947.47
2022-10-31T09:20:23.065Z,95953.84
2022-10-31T09:23:00.767Z,95953.56
2022-10-31T09:25:27.466Z,95952.81
2022-10-31T09:28:02.139Z,95946.81
2022-10-31T09:30:30.913Z,95949.06
2022-10-31T09:33:07.012Z,95959.31
2022-10-31T09:35:33.958Z,95950.50
2022-10-31T09:38:06.542Z,95941.25
2022-10-31T09:40:39.929Z,95937.97
2022-10-31T09:43:33.152Z,95922.75
2022-10-31T09:46:16.091Z,95922.38
2022-10-31T09:49:03.681Z,95923.16
2022-10-31T09:51:35.810Z,95921.09
2022-10-31T09:54:43.708Z,95916.88
2022-10-31T09:57:16.404Z,95920.63
2022-10-31T09:59:47.657Z,95922.97
2022-10-31T10:02:58.282Z,95918.84
2022-10-31T10:05:35.115Z,95906.09
2022-10-31T10:08:14.130Z,95914.88
2022-10-31T10:10:55.563Z,95913.59
2022-10-31T10:13:29.777Z,95912.41
2022-10-31T10:16:02.120Z,95906.81
2022-10-31T10:18:49.990Z,95910.47
2022-10-31T10:21:35.035Z,95909.38
2022-10-31T10:24:20.528Z,95912.31
2022-10-31T10:26:59.288Z,95924.00
2022-10-31T10:29:38.484Z,95922.38
2022-10-31T10:32:18.645Z,95923.78
2022-10-31T10:34:55.867Z,95921.00
2022-10-31T10:37:35.016Z,95920.69
2022-10-31T10:40:14.961Z,95912.56
2022-10-31T10:42:44.991Z,95913.00
2022-10-31T10:45:18.397Z,95906.78
2022-10-31T10:47:54.185Z,95905.91
2022-10-31T10:50:26.212Z,95899.66
2022-10-31T10:53:37.005Z,95895.41
2022-10-31T10:56:25.907Z,95909.91
2022-10-31T10:58:55.804Z,95908.59
2022-10-31T11:01:23.536Z,95892.09
2022-10-31T11:03:50.736Z,95876.91
2022-10-31T11:06:24.025Z,95872.47
2022-10-31T11:08:50.491Z,95871.19
2022-10-31T11:11:29.465Z,95867.72
2022-10-31T11:14:15.199Z,95870.09
2022-10-31T11:16:51.208Z,95862.53
2022-10-31T11:19:27.326Z,95863.91
2022-10-31T11:21:54.574Z,95861.22
2022-10-31T11:24:23.753Z,95866.25
2022-10-31T11:26:52.004Z,95859.59
2022-10-31T11:29:22.511Z,95858.25
2022-10-31T11:31:53.768Z,95850.09
2022-10-31T11:34:46.188Z,95837.59
2022-10-31T11:37:21.167Z,95842.63
2022-10-31T11:39:58.795Z,95834.06
2022-10-31T11:42:40.521Z,95825.63
2022-10-31T11:45:17.945Z,95827.09
2022-10-31T11:47:49.738Z,95819.22
2022-10-31T11:50:25.222Z,95815.72
2022-10-31T11:55:34.413Z,95816.56
2022-10-31T11:58:01.467Z,95817.13
2022-10-31T12:00:38.415Z,95823.66
2022-10-31T12:03:28.126Z,95811.69
2022-10-31T12:06:05.663Z,95810.56
2022-10-31T12:08:37.029Z,95804.72
2022-10-31T12:11:18.998Z,95810.31
2022-10-31T12:14:08.847Z,95797.38
2022-10-31T12:16:47.248Z,95784.91
2022-10-31T12:19:41.502Z,95787.16
2022-10-31T12:22:16.733Z,95779.56
2022-10-31T12:25:04.480Z,95772.03
2022-10-31T12:27:56.923Z,95770.03
2022-10-31T12:31:00.352Z,95785.38
2022-10-31T12:33:38.442Z,95782.53
2022-10-31T12:36:27.621Z,95791.38
2022-10-31T12:39:22.128Z,95775.28
2022-10-31T12:42:00.218Z,95773.47
2022-10-31T12:44:53.638Z,95766.13
2022-10-31T12:47:47.282Z,95747.94
2022-10-31T12:50:22.193Z,95748.00
2022-10-31T12:52:57.529Z,95747.81
2022-10-31T12:55:36.212Z,95741.44
2022-10-31T12:58:15.114Z,95733.16
2022-10-31T13:00:49.195Z,95734.91
2022-10-31T13:03:29.331Z,95735.00
2022-10-31T13:06:04.073Z,95728.81
2022-10-31T13:08:43.671Z,95722.72
2022-10-31T13:11:16.972Z,95716.88
2022-10-31T13:13:53.101Z,95716.94
2022-10-31T13:16:25.358Z,95707.41
2022-10-31T13:19:01.014Z,95715.63
2022-10-31T13:21:36.600Z,95712.59
2022-10-31T13:24:13.901Z,95708.69
2022-10-31T13:26:53.909Z,95701.72
2022-10-31T13:29:37.636Z,95706.19
2022-10-31T13:32:08.544Z,95695.31
2022-10-31T13:34:41.109Z,95690.28
2022-10-31T13:37:13.158Z,95688.06
2022-10-31T13:39:51.426Z,95695.94
2022-10-31T13:42:32.820Z,95690.13
2022-10-31T13:45:17.417Z,95677.47
2022-10-31T13:47:44.031Z,95690.59
2022-10-31T13:50:23.522Z,95685.81
2022-10-31T13:52:50.076Z,95684.91
2022-10-31T13:55:44.523Z,95681.75
2022-10-31T13:58:24.374Z,95691.75
2022-10-31T14:01:12.034Z,95686.84
2022-10-31T14:06:50.850Z,95674.66
2022-10-31T14:09:26.289Z,95678.03
2022-10-31T14:11:54.398Z,95668.91
2022-10-31T14:14:27.877Z,95670.38
2022-10-31T14:16:58.733Z,95676.19
2022-10-31T14:19:26.831Z,95679.66
2022-10-31T14:21:53.553Z,95681.38
2022-10-31T14:24:26.069Z,95683.00
2022-10-31T14:27:24.241Z,95678.94
2022-10-31T14:29:51.342Z,95690.59
2022-10-31T14:32:25.076Z,95686.00
2022-10-31T14:34:51.485Z,95682.41
2022-10-31T14:38:02.752Z,95697.56
2022-10-31T14:40:32.355Z,95689.91
2022-10-31T14:43:40.415Z,95688.22
2022-10-31T14:46:19.136Z,95696.47
2022-10-31T14:48:57.650Z,95701.28
2022-10-31T14:51:30.814Z,95700.69
2022-10-31T14:54:00.472Z,95702.13
2022-10-31T14:56:30.546Z,95693.81
2022-10-31T14:59:02.180Z,95699.38
2022-10-31T15:01:35.209Z,95691.38
2022-10-31T15:04:23.761Z,95689.69
2022-10-31T15:07:26.333Z,95697.06
2022-10-31T15:10:07.428Z,95695.66
2022-10-31T15:12:36.271Z,95684.38
2022-10-31T15:15:20.943Z,95689.97
2022-10-31T15:17:58.618Z,95692.91
2022-10-31T15:20:43.774Z,95694.41
2022-10-31T15:23:15.563Z,95691.38
2022-10-31T15:25:42.502Z,95684.97
2022-10-31T15:28:21.979Z,95679.91
2022-10-31T15:30:59.886Z,95680.63
2022-10-31T15:33:33.684Z,95682.63
2022-10-31T15:36:04.555Z,95681.22
2022-10-31T15:38:31.334Z,95684.75
2022-10-31T15:41:03.915Z,95695.94
2022-10-31T15:43:39.681Z,95699.19
2022-10-31T15:46:10.334Z,95694.47
2022-10-31T15:48:37.706Z,95680.41
2022-10-31T15:51:04.205Z,95692.84
2022-10-31T15:53:45.598Z,95708.75
2022-10-31T15:56:21.384Z,95711.34
2022-10-31T15:58:50.995Z,95711.56
2022-10-31T16:01:30.303Z,95712.28
2022-10-31T16:04:05.248Z,95703.81
2022-10-31T16:06:34.430Z,95702.63
2022-10-31T16:09:01.790Z,95696.03
2022-10-31T16:11:38.294Z,95703.25
2022-10-31T16:14:16.164Z,95705.00
2022-10-31T16:16:49.020Z,95700.31
2022-10-31T16:19:23.745Z,95697.75
2022-10-31T16:21:56.369Z,95695.13
2022-10-31T16:24:30.122Z,95704.53
2022-10-31T16:27:05.833Z,95707.97
2022-10-31T16:29:47.782Z,95705.97
2022-10-31T16:32:38.262Z,95705.81
2022-10-31T16:35:10.763Z,95710.41
2022-10-31T16:37:41.782Z,95711.75
2022-10-31T16:40:11.851Z,95715.91
2022-10-31T16:42:38.345Z,95726.31
2022-10-31T16:45:07.437Z,95733.88
2022-10-31T16:47:33.930Z,95732.94
2022-10-31T16:50:01.750Z,95730.09
2022-10-31T16:52:31.606Z,95747.34
2022-10-31T16:55:04.890Z,95745.78
2022-10-31T16:57:32.320Z,95731.75
2022-10-31T16:59:58.855Z,95745.63
2022-10-31T17:02:25.583Z,95737.03
2022-10-31T17:04:55.725Z,95736.59
2022-10-31T17:07:23.454Z,95728.91
2022-10-31T17:09:49.946Z,95729.34
2022-10-31T17:12:22.856Z,95740.06
2022-10-31T17:14:52.676Z,95724.88
2022-10-31T17:17:19.105Z,95733.09
2022-10-31T17:19:45.548Z,95730.41
2022-10-31T17:22:14.913Z,95728.63
2022-10-31T17:24:41.375Z,95741.53
2022-10-31T17:27:10.502Z,95732.94
2022-10-31T17:29:36.947Z,95736.03
2022-10-31T17:32:03.643Z,95729.59
2022-10-31T17:34:30.850Z,95747.44
2022-10-31T17:36:57.368Z,95737.97
2022-10-31T17:39:23.835Z,95730.47
2022-10-31T17:41:51.468Z,95731.31
2022-10-31T17:44:18.669Z,95730.88
2022-10-31T17:46:45.726Z,95732.91
2022-10-31T17:49:12.540Z,95728.41
2022-10-31T17:51:38.976Z,95727.09
2022-10-31T17:54:05.510Z,95726.41
2022-10-31T17:56:32.086Z,95732.94
2022-10-31T17:58:58.588Z,95734.81
2022-10-31T18:01:25.305Z,95731.31
2022-10-31T18:03:51.897Z,95734.19
2022-10-31T18:06:18.375Z,95719.00
2022-10-31T18:08:44.819Z,95719.44
2022-10-31T18:11:15.971Z,95720.88
2022-10-31T18:13:42.680Z,95723.09
2022-10-31T18:16:15.679Z,95713.47
2022-10-31T18:18:42.139Z,95710.75
2022-10-31T18:21:08.823Z,95714.28
2022-10-31T18:23:35.702Z,95707.91
2022-10-31T18:26:02.293Z,95702.81
2022-10-31T18:28:28.761Z,95696.38
2022-10-31T18:30:58.902Z,95693.06
2022-10-31T18:33:25.342Z,95691.16
2022-10-31T18:35:51.791Z,95692.16
2022-10-31T18:38:18.265Z,95691.91
2022-10-31T18:40:44.730Z,95693.34
2022-10-31T18:43:11.191Z,95700.06
2022-10-31T18:45:46.861Z,95696.38
2022-10-31T18:48:15.409Z,95690.19
2022-10-31T18:50:42.319Z,95690.59
2022-10-31T18:53:09.352Z,95688.53
2022-10-31T18:55:43.783Z,95681.13
2022-10-31T18:58:12.305Z,95679.91
2022-10-31T19:00:38.779Z,95677.44
2022-10-31T19:03:05.625Z,95686.44
2022-10-31T19:05:32.115Z,95684.00
2022-10-31T19:07:58.580Z,95683.22
2022-10-31T19:10:25.090Z,95673.41
2022-10-31T19:12:51.560Z,95668.47
2022-10-31T19:15:18.225Z,95668.06
2022-10-31T19:17:44.704Z,95664.84
2022-10-31T19:20:11.421Z,95660.44
2022-10-31T19:22:37.888Z,95667.63
2022-10-31T19:25:09.228Z,95665.34
2022-10-31T19:27:37.046Z,95675.19
2022-10-31T19:30:04.958Z,95682.13
2022-10-31T19:32:31.425Z,95684.25
2022-10-31T19:34:57.909Z,95684.66
2022-10-31T19:37:24.817Z,95686.66
2022-10-31T19:39:51.386Z,95690.56
2022-10-31T19:42:18.041Z,95688.31
2022-10-31T19:44:44.531Z,95691.16
2022-10-31T19:47:11.002Z,95692.38
2022-10-31T19:49:37.498Z,95696.06
2022-10-31T19:52:04.164Z,95695.66
2022-10-31T19:54:30.617Z,95698.34
2022-10-31T19:56:57.078Z,95701.78
2022-10-31T19:59:23.578Z,95699.56
2022-10-31T20:01:50.117Z,95701.38
2022-10-31T20:04:16.621Z,95700.19
2022-10-31T20:06:43.224Z,95696.50
2022-10-31T20:09:12.919Z,95683.41
2022-10-31T20:11:41.005Z,95688.91
2022-10-31T20:14:10.459Z,95681.97
2022-10-31T20:16:37.044Z,95670.72
2022-10-31T20:19:04.146Z,95668.69
2022-10-31T20:21:31.575Z,95665.66
2022-10-31T20:24:03.642Z,95682.22
2022-10-31T20:26:31.674Z,95681.41
2022-10-31T20:28:59.681Z,95685.09
2022-10-31T20:31:29.440Z,95685.50
2022-10-31T20:33:56.529Z,95693.69
2022-10-31T20:36:23.674Z,95701.81
2022-10-31T20:38:52.217Z,95696.94
2022-10-31T20:41:18.758Z,95699.78
2022-10-31T20:43:46.045Z,95709.00
2022-10-31T20:46:19.357Z,95712.03
2022-10-31T20:48:46.758Z,95713.91
2022-10-31T20:51:19.299Z,95717.78
2022-10-31T20:53:45.891Z,95717.38
2022-10-31T20:56:18.196Z,95718.22
2022-10-31T20:58:45.977Z,95714.72
2022-10-31T21:01:22.397Z,95713.09
2022-10-31T21:03:50.623Z,95712.47
2022-10-31T21:06:19.063Z,95719.03
2022-10-31T21:08:46.760Z,95721.28
2022-10-31T21:11:19.783Z,95725.38
2022-10-31T21:13:47.677Z,95719.81
2022-10-31T21:16:20.709Z,95716.56
2022-10-31T21:18:48.583Z,95723.09
2022-10-31T21:21:18.748Z,95712.91
2022-10-31T21:23:46.014Z,95725.16
2022-10-31T21:26:20.763Z,95726.78
2022-10-31T21:28:48.260Z,95728.84
2022-10-31T21:31:17.543Z,95725.34
2022-10-31T21:33:45.900Z,95714.09
2022-10-31T21:36:13.530Z,95726.78
2022-10-31T21:38:40.979Z,95724.56
2022-10-31T21:41:11.562Z,95714.94
2022-10-31T21:43:41.281Z,95718.63
2022-10-31T21:46:13.589Z,95730.88
2022-10-31T21:48:41.744Z,95733.97
2022-10-31T21:51:11.017Z,95726.38
2022-10-31T21:53:38.436Z,95725.97
2022-10-31T21:56:05.219Z,95735.38
2022-10-31T21:58:34.764Z,95737.84
2022-10-31T22:01:04.641Z,95733.34
2022-10-31T22:03:37.759Z,95734.13
2022-10-31T22:06:06.038Z,95727.22
2022-10-31T22:08:32.611Z,95732.94
2022-10-31T22:11:13.855Z,95731.69
2022-10-31T22:13:41.781Z,95727.22
2022-10-31T22:16:11.495Z,95736.81
2022-10-31T22:18:39.149Z,95733.31
2022-10-31T22:21:11.336Z,95734.97
2022-10-31T22:23:38.985Z,95721.03
2022-10-31T22:26:11.083Z,95711.44
2022-10-31T22:28:37.575Z,95702.28
2022-10-31T22:31:09.092Z,95687.50
2022-10-31T22:33:36.554Z,95700.63
2022-10-31T22:36:05.383Z,95705.50
2022-10-31T22:38:33.337Z,95720.22
2022-10-31T22:41:01.138Z,95724.09
2022-10-31T22:43:27.822Z,95729.00
2022-10-31T22:45:58.790Z,95737.78
2022-10-31T22:48:25.220Z,95740.69
2022-10-31T22:50:51.679Z,95754.56
2022-10-31T22:53:18.431Z,95759.91
2022-10-31T22:55:44.976Z,95744.75
2022-10-31T22:58:11.699Z,95753.72
2022-10-31T23:00:38.228Z,95748.78
2022-10-31T23:03:04.724Z,95723.88
2022-10-31T23:05:31.179Z,95731.06
2022-10-31T23:07:57.739Z,95749.09
2022-10-31T23:10:24.234Z,95743.31
2022-10-31T23:12:50.675Z,95727.19
2022-10-31T23:15:17.147Z,95726.38
2022-10-31T23:17:43.600Z,95741.31
2022-10-31T23:20:10.123Z,95758.28
2022-10-31T23:22:36.563Z,95712.06
2022-10-31T23:25:03.065Z,95721.69
2022-10-31T23:27:29.628Z,95721.47
2022-10-31T23:29:58.670Z,95741.09
2022-10-31T23:32:36.976Z,95723.94
2022-10-31T23:35:08.751Z,95731.56
2022-10-31T23:37:37.534Z,95734.28
2022-10-31T23:40:05.825Z,95727.63
2022-10-31T23:42:32.255Z,95719.81
2022-10-31T23:44:58.709Z,95714.72
2022-10-31T23:47:25.511Z,95724.34
2022-10-31T23:49:51.959Z,95721.91
2022-10-31T23:52:18.739Z,95714.94
2022-10-31T23:54:45.397Z,95700.81
2022-10-31T23:57:14.096Z,95716.16
2022-10-31T23:59:40.566Z,95730.88
